Aig — CNA4490 — position and weather

sailwx.info

Track history (hours):
 
Tides and Currents Weather Stations Pressure Air Temp Water Temp Dewpoint Dewpoint Depression Visibility Wind Speed Wind Dir Waves Ship Positions

Aig

Last reported at 2018-Jan-05 08:22 UTC. Time now 2018-Jun-22 07:45 UTC.
Position N 23°39' W 015°57'.
Warning: this ship's position is months out of date.

Length 50 m; draft 5.5 m.

Type: Fishing. MMSI: 242925000.

Date/timePositionNaut miles runAvg speedWind from/ knotsBaromVisibWave heightAir tempDewpointWater temp
2018-Jan-05 08:22N 23°39' W 015°57'47 4.8
2018-Jan-04 22:37N 24°24' W 015°42'1 4.6
2018-Jan-04 22:30N 24°25' W 015°42'18 4.3
2018-Jan-04 18:14N 24°39' W 015°29'1 5.2
2018-Jan-04 18:00N 24°40' W 015°28'5 6.7
2018-Jan-04 17:19N 24°36' W 015°31'14 9.4
2018-Jan-04 15:51N 24°25' W 015°40'2 0.1
2018-Jan-04 03:44N 24°26' W 015°41'7 4.4
2018-Jan-04 02:09N 24°20' W 015°45'0 0.7
2018-Jan-04 01:58N 24°20' W 015°45'4 3.0
2018-Jan-04 00:44N 24°23' W 015°42'1 4.4
2018-Jan-04 00:26N 24°24' W 015°42'2 4.5
2018-Jan-04 00:00N 24°26' W 015°41'2 4.4
2018-Jan-03 23:28N 24°28' W 015°39'11 0.3
2018-Jan-02 10:10N 24°38' W 015°34'1 3.7
2018-Jan-02 09:49N 24°37' W 015°35'2 0.6
2018-Jan-02 06:03N 24°38' W 015°38'0 4.3
2018-Jan-02 06:00N 24°38' W 015°38'2 4.4
2018-Jan-02 05:31N 24°40' W 015°38'6 4.0
2018-Jan-02 04:07N 24°45' W 015°36'1 3.8
2018-Jan-02 03:53N 24°44' W 015°36'  
Track history (hours):
 
Tides and Currents Weather Stations Pressure Air Temp Water Temp Dewpoint Dewpoint Depression Visibility Wind Speed Wind Dir Waves Ship Positions

Aig

Last reported at 2018-Jan-05 08:22 UTC. Time now 2018-Jun-22 07:45 UTC.
Position N 23°39' W 015°57'.
Warning: this ship's position is months out of date.

Length 50 m; draft 5.5 m.

Type: Fishing. MMSI: 242925000.

Date/timePositionNaut miles runAvg speedWind from/ knotsBaromVisibWave heightAir tempDewpointWater temp
2018-Jan-05 08:22N 23°39' W 015°57'47 4.8
2018-Jan-04 22:37N 24°24' W 015°42'1 4.6
2018-Jan-04 22:30N 24°25' W 015°42'18 4.3
2018-Jan-04 18:14N 24°39' W 015°29'1 5.2
2018-Jan-04 18:00N 24°40' W 015°28'5 6.7
2018-Jan-04 17:19N 24°36' W 015°31'14 9.4
2018-Jan-04 15:51N 24°25' W 015°40'2 0.1
2018-Jan-04 03:44N 24°26' W 015°41'7 4.4
2018-Jan-04 02:09N 24°20' W 015°45'0 0.7
2018-Jan-04 01:58N 24°20' W 015°45'4 3.0
2018-Jan-04 00:44N 24°23' W 015°42'1 4.4
2018-Jan-04 00:26N 24°24' W 015°42'2 4.5
2018-Jan-04 00:00N 24°26' W 015°41'2 4.4
2018-Jan-03 23:28N 24°28' W 015°39'11 0.3
2018-Jan-02 10:10N 24°38' W 015°34'1 3.7
2018-Jan-02 09:49N 24°37' W 015°35'2 0.6
2018-Jan-02 06:03N 24°38' W 015°38'0 4.3
2018-Jan-02 06:00N 24°38' W 015°38'2 4.4
2018-Jan-02 05:31N 24°40' W 015°38'6 4.0
2018-Jan-02 04:07N 24°45' W 015°36'1 3.8
2018-Jan-02 03:53N 24°44' W 015°36'  

Dump ship's entire track history